Time,TemperatureF,DewpointF,PressureIn,WindDirection,WindDirectionDegrees,WindSpeedMPH,WindSpeedGustMPH,Humidity,HourlyPrecipIn,Conditions,Clouds,dailyrainin,SoftwareType,DateUTC
2013-01-15 00:00:00,23.1,15.8,30.33,WNW,292,3.0,17.0,73,0.00,,,0.00,WeatherCatV1.12B45,2013-01-15 05:00:00,
2013-01-15 00:05:00,23.1,15.8,30.33,WNW,292,3.0,17.0,73,0.00,,,0.00,WeatherCatV1.12B45,2013-01-15 05:05:00,
2013-01-15 00:10:00,23.1,15.8,30.33,WNW,292,3.0,17.0,73,0.00,,,0.00,WeatherCatV1.12B45,2013-01-15 05:10:00,
2013-01-15 00:15:00,23.1,15.8,30.33,WNW,292,3.0,17.0,73,0.00,,,0.00,WeatherCatV1.12B45,2013-01-15 05:15:00,
2013-01-15 00:20:00,23.1,15.8,30.33,WNW,292,3.0,17.0,73,0.00,,,0.00,WeatherCatV1.12B45,2013-01-15 05:20:00,
2013-01-15 00:25:00,23.1,15.8,30.33,WNW,292,3.0,17.0,73,0.00,,,0.00,WeatherCatV1.12B45,2013-01-15 05:25:00,
2013-01-15 00:30:00,23.0,15.7,30.34,WNW,292,4.0,14.0,73,0.00,,,0.00,WeatherCatV1.12B45,2013-01-15 05:30:00,
2013-01-15 00:35:00,23.0,15.7,30.34,WNW,292,4.0,14.0,73,0.00,,,0.00,WeatherCatV1.12B45,2013-01-15 05:35:00,
2013-01-15 00:40:00,23.0,15.7,30.34,WNW,292,4.0,14.0,73,0.00,,,0.00,WeatherCatV1.12B45,2013-01-15 05:40:00,
2013-01-15 00:45:00,23.0,15.7,30.34,WNW,292,4.0,14.0,73,0.00,,,0.00,WeatherCatV1.12B45,2013-01-15 05:45:00,
2013-01-15 00:50:00,23.0,15.7,30.34,WNW,292,4.0,14.0,73,0.00,,,0.00,WeatherCatV1.12B45,2013-01-15 05:50:00,
2013-01-15 00:55:00,23.0,15.7,30.34,WNW,292,4.0,14.0,73,0.00,,,0.00,WeatherCatV1.12B45,2013-01-15 05:55:00,
2013-01-15 01:00:00,22.8,15.2,30.34,WNW,292,3.0,13.0,72,0.00,,,0.00,WeatherCatV1.12B45,2013-01-15 06:00:00,
2013-01-15 01:05:00,22.8,15.2,30.34,WNW,292,3.0,13.0,72,0.00,,,0.00,WeatherCatV1.12B45,2013-01-15 06:05:00,
2013-01-15 01:10:00,22.8,15.2,30.34,WNW,292,3.0,13.0,72,0.00,,,0.00,WeatherCatV1.12B45,2013-01-15 06:10:00,
2013-01-15 01:15:00,22.8,15.2,30.34,WNW,292,3.0,13.0,72,0.00,,,0.00,WeatherCatV1.12B45,2013-01-15 06:15:00,
2013-01-15 01:20:00,22.8,15.2,30.34,WNW,292,3.0,13.0,72,0.00,,,0.00,WeatherCatV1.12B45,2013-01-15 06:20:00,
2013-01-15 01:25:00,22.8,15.2,30.34,WNW,292,3.0,13.0,72,0.00,,,0.00,WeatherCatV1.12B45,2013-01-15 06:25:00,
2013-01-15 01:30:00,22.8,15.5,30.33,West,270,3.0,14.0,73,0.00,,,0.00,WeatherCatV1.12B45,2013-01-15 06:30:00,
2013-01-15 01:35:00,22.8,15.5,30.33,West,270,3.0,14.0,73,0.00,,,0.00,WeatherCatV1.12B45,2013-01-15 06:35:00,
2013-01-15 01:40:00,22.8,15.5,30.33,West,270,3.0,14.0,73,0.00,,,0.00,WeatherCatV1.12B45,2013-01-15 06:40:00,
2013-01-15 01:45:00,22.8,15.5,30.33,West,270,3.0,14.0,73,0.00,,,0.00,WeatherCatV1.12B45,2013-01-15 06:45:00,
2013-01-15 01:50:00,22.8,15.5,30.33,West,270,3.0,14.0,73,0.00,,,0.00,WeatherCatV1.12B45,2013-01-15 06:50:00,
2013-01-15 01:55:00,22.8,15.5,30.33,West,270,3.0,14.0,73,0.00,,,0.00,WeatherCatV1.12B45,2013-01-15 06:55:00,
2013-01-15 02:00:00,22.4,14.4,30.34,West,270,5.0,16.0,71,0.00,,,0.00,WeatherCatV1.12B45,2013-01-15 07:00:00,
2013-01-15 02:05:00,22.4,14.4,30.34,West,270,5.0,16.0,71,0.00,,,0.00,WeatherCatV1.12B45,2013-01-15 07:05:00,
2013-01-15 02:10:00,22.4,14.4,30.34,West,270,5.0,16.0,71,0.00,,,0.00,WeatherCatV1.12B45,2013-01-15 07:10:00,
2013-01-15 02:15:00,22.4,14.4,30.34,West,270,5.0,16.0,71,0.00,,,0.00,WeatherCatV1.12B45,2013-01-15 07:15:00,
2013-01-15 02:20:00,22.4,14.4,30.34,West,270,5.0,16.0,71,0.00,,,0.00,WeatherCatV1.12B45,2013-01-15 07:20:00,
2013-01-15 02:25:00,22.4,14.4,30.34,West,270,5.0,16.0,71,0.00,,,0.00,WeatherCatV1.12B45,2013-01-15 07:25:00,
2013-01-15 02:30:00,22.2,15.2,30.34,West,270,3.0,15.0,74,0.00,,,0.00,WeatherCatV1.12B45,2013-01-15 07:30:00,
2013-01-15 02:35:00,22.2,15.2,30.34,West,270,3.0,15.0,74,0.00,,,0.00,WeatherCatV1.12B45,2013-01-15 07:35:00,
2013-01-15 02:40:00,22.2,15.2,30.34,West,270,3.0,15.0,74,0.00,,,0.00,WeatherCatV1.12B45,2013-01-15 07:40:00,
2013-01-15 02:45:00,22.2,15.2,30.34,West,270,3.0,15.0,74,0.00,,,0.00,WeatherCatV1.12B45,2013-01-15 07:45:00,
2013-01-15 02:50:00,22.2,15.2,30.34,West,270,3.0,15.0,74,0.00,,,0.00,WeatherCatV1.12B45,2013-01-15 07:50:00,
2013-01-15 02:55:00,22.2,15.2,30.34,West,270,3.0,15.0,74,0.00,,,0.00,WeatherCatV1.12B45,2013-01-15 07:55:00,
2013-01-15 03:00:00,22.0,15.0,30.35,West,270,4.0,18.0,74,0.00,,,0.00,WeatherCatV1.12B45,2013-01-15 08:00:00,
2013-01-15 03:05:00,22.0,15.0,30.35,West,270,4.0,18.0,74,0.00,,,0.00,WeatherCatV1.12B45,2013-01-15 08:05:00,
2013-01-15 03:10:00,22.0,15.0,30.35,West,270,4.0,18.0,74,0.00,,,0.00,WeatherCatV1.12B45,2013-01-15 08:10:00,
2013-01-15 03:15:00,22.0,15.0,30.35,West,270,4.0,18.0,74,0.00,,,0.00,WeatherCatV1.12B45,2013-01-15 08:15:00,
2013-01-15 03:20:00,22.0,15.0,30.35,West,270,4.0,18.0,74,0.00,,,0.00,WeatherCatV1.12B45,2013-01-15 08:20:00,
2013-01-15 03:25:00,22.0,15.0,30.35,West,270,4.0,18.0,74,0.00,,,0.00,WeatherCatV1.12B45,2013-01-15 08:25:00,
2013-01-15 03:30:00,21.5,14.5,30.36,WNW,292,5.0,14.0,74,0.00,,,0.00,WeatherCatV1.12B45,2013-01-15 08:30:00,
2013-01-15 03:35:00,21.5,14.5,30.36,WNW,292,5.0,14.0,74,0.00,,,0.00,WeatherCatV1.12B45,2013-01-15 08:35:00,
2013-01-15 03:40:00,21.5,14.5,30.36,WNW,292,5.0,14.0,74,0.00,,,0.00,WeatherCatV1.12B45,2013-01-15 08:40:00,
2013-01-15 03:45:00,21.5,14.5,30.36,WNW,292,5.0,14.0,74,0.00,,,0.00,WeatherCatV1.12B45,2013-01-15 08:45:00,
2013-01-15 03:50:00,21.5,14.5,30.36,WNW,292,5.0,14.0,74,0.00,,,0.00,WeatherCatV1.12B45,2013-01-15 08:50:00,
2013-01-15 03:55:00,21.5,14.5,30.36,WNW,292,5.0,14.0,74,0.00,,,0.00,WeatherCatV1.12B45,2013-01-15 08:55:00,
2013-01-15 04:00:00,21.3,14.3,30.36,WNW,292,3.0,14.0,74,0.00,,,0.00,WeatherCatV1.12B45,2013-01-15 09:00:00,
2013-01-15 04:05:00,21.3,14.3,30.36,WNW,292,3.0,14.0,74,0.00,,,0.00,WeatherCatV1.12B45,2013-01-15 09:05:00,
2013-01-15 04:10:00,21.3,14.3,30.36,WNW,292,3.0,14.0,74,0.00,,,0.00,WeatherCatV1.12B45,2013-01-15 09:10:00,
2013-01-15 04:15:00,21.3,14.3,30.36,WNW,292,3.0,14.0,74,0.00,,,0.00,WeatherCatV1.12B45,2013-01-15 09:15:00,
2013-01-15 04:20:00,21.3,14.3,30.36,WNW,292,3.0,14.0,74,0.00,,,0.00,WeatherCatV1.12B45,2013-01-15 09:20:00,
2013-01-15 04:25:00,21.3,14.3,30.36,WNW,292,3.0,14.0,74,0.00,,,0.00,WeatherCatV1.12B45,2013-01-15 09:25:00,
2013-01-15 04:30:00,19.8,11.9,30.36,WNW,292,4.0,14.0,71,0.00,,,0.00,WeatherCatV1.12B45,2013-01-15 09:30:00,
2013-01-15 04:35:00,19.8,11.9,30.36,WNW,292,4.0,14.0,71,0.00,,,0.00,WeatherCatV1.12B45,2013-01-15 09:35:00,
2013-01-15 04:40:00,19.8,11.9,30.36,WNW,292,4.0,14.0,71,0.00,,,0.00,WeatherCatV1.12B45,2013-01-15 09:40:00,
2013-01-15 04:45:00,19.8,11.9,30.36,WNW,292,4.0,14.0,71,0.00,,,0.00,WeatherCatV1.12B45,2013-01-15 09:45:00,
2013-01-15 04:50:00,19.8,11.9,30.36,WNW,292,4.0,14.0,71,0.00,,,0.00,WeatherCatV1.12B45,2013-01-15 09:50:00,
2013-01-15 04:55:00,19.8,11.9,30.36,WNW,292,4.0,14.0,71,0.00,,,0.00,WeatherCatV1.12B45,2013-01-15 09:55:00,
2013-01-15 05:00:00,19.1,11.6,30.36,WNW,292,3.0,11.0,72,0.00,,,0.00,WeatherCatV1.12B45,2013-01-15 10:00:00,
2013-01-15 05:05:00,19.1,11.6,30.36,WNW,292,3.0,11.0,72,0.00,,,0.00,WeatherCatV1.12B45,2013-01-15 10:05:00,
2013-01-15 05:10:00,19.1,11.6,30.36,WNW,292,3.0,11.0,72,0.00,,,0.00,WeatherCatV1.12B45,2013-01-15 10:10:00,
2013-01-15 05:15:00,19.1,11.6,30.36,WNW,292,3.0,11.0,72,0.00,,,0.00,WeatherCatV1.12B45,2013-01-15 10:15:00,
2013-01-15 05:20:00,19.1,11.6,30.36,WNW,292,3.0,11.0,72,0.00,,,0.00,WeatherCatV1.12B45,2013-01-15 10:20:00,
2013-01-15 05:25:00,19.1,11.6,30.36,WNW,292,3.0,11.0,72,0.00,,,0.00,WeatherCatV1.12B45,2013-01-15 10:25:00,
2013-01-15 05:30:00,18.6,11.4,30.36,WNW,292,2.0,9.0,73,0.00,,,0.00,WeatherCatV1.12B45,2013-01-15 10:30:00,
2013-01-15 05:35:00,18.6,11.4,30.36,WNW,292,2.0,9.0,73,0.00,,,0.00,WeatherCatV1.12B45,2013-01-15 10:35:00,
2013-01-15 05:40:00,18.6,11.4,30.36,WNW,292,2.0,9.0,73,0.00,,,0.00,WeatherCatV1.12B45,2013-01-15 10:40:00,
2013-01-15 05:45:00,18.6,11.4,30.36,WNW,292,2.0,9.0,73,0.00,,,0.00,WeatherCatV1.12B45,2013-01-15 10:45:00,
2013-01-15 05:50:00,18.6,11.4,30.36,WNW,292,2.0,9.0,73,0.00,,,0.00,WeatherCatV1.12B45,2013-01-15 10:50:00,
2013-01-15 05:55:00,18.6,11.4,30.36,WNW,292,2.0,9.0,73,0.00,,,0.00,WeatherCatV1.12B45,2013-01-15 10:55:00,
2013-01-15 06:00:00,17.9,10.7,30.36,WNW,292,1.0,6.0,73,0.00,,,0.00,WeatherCatV1.12B45,2013-01-15 11:00:00,
2013-01-15 06:05:00,17.9,10.7,30.36,WNW,292,1.0,6.0,73,0.00,,,0.00,WeatherCatV1.12B45,2013-01-15 11:05:00,
2013-01-15 06:10:00,17.9,10.7,30.36,WNW,292,1.0,6.0,73,0.00,,,0.00,WeatherCatV1.12B45,2013-01-15 11:10:00,
2013-01-15 06:15:00,17.9,10.7,30.36,WNW,292,1.0,6.0,73,0.00,,,0.00,WeatherCatV1.12B45,2013-01-15 11:15:00,
2013-01-15 06:20:00,17.9,10.7,30.36,WNW,292,1.0,6.0,73,0.00,,,0.00,WeatherCatV1.12B45,2013-01-15 11:20:00,
2013-01-15 06:25:00,17.9,10.7,30.36,WNW,292,1.0,6.0,73,0.00,,,0.00,WeatherCatV1.12B45,2013-01-15 11:25:00,
2013-01-15 06:36:00,16.3,10.7,30.36,West,264,0.0,0.0,78,0.00,,,0.00,WeatherCatV1.12B45,2013-01-15 11:36:00,
2013-01-15 06:41:00,15.8,10.7,30.35,WSW,243,0.0,0.0,80,0.00,,,0.00,WeatherCatV1.12B45,2013-01-15 11:41:00,
2013-01-15 06:46:00,15.6,10.6,30.35,WSW,243,0.0,0.0,80,0.00,,,0.00,WeatherCatV1.12B45,2013-01-15 11:46:00,
2013-01-15 06:51:00,15.3,10.5,30.35,WSW,243,0.0,0.0,81,0.00,,,0.00,WeatherCatV1.12B45,2013-01-15 11:51:00,
2013-01-15 06:56:00,15.0,10.2,30.35,WSW,243,0.0,0.0,81,0.00,,,0.00,WeatherCatV1.12B45,2013-01-15 11:56:00,
2013-01-15 07:01:00,14.8,10.3,30.36,WSW,243,0.0,0.0,82,0.00,,,0.00,WeatherCatV1.12B45,2013-01-15 12:01:00,
2013-01-15 07:06:00,14.5,10.3,30.36,WSW,243,0.0,0.0,83,0.00,,,0.00,WeatherCatV1.12B45,2013-01-15 12:06:00,
2013-01-15 07:11:00,14.3,10.1,30.36,WSW,243,0.0,0.0,83,0.00,,,0.00,WeatherCatV1.12B45,2013-01-15 12:11:00,
2013-01-15 07:16:00,14.2,10.3,30.36,WSW,243,0.0,0.0,84,0.00,,,0.00,WeatherCatV1.12B45,2013-01-15 12:16:00,
2013-01-15 07:21:00,14.3,10.6,30.36,WSW,243,0.0,0.0,85,0.00,,,0.00,WeatherCatV1.12B45,2013-01-15 12:21:00,
2013-01-15 07:26:00,14.3,10.6,30.36,WSW,243,0.0,0.0,85,0.00,,,0.00,WeatherCatV1.12B45,2013-01-15 12:26:00,
2013-01-15 07:31:00,14.2,10.5,30.36,WSW,243,0.0,0.0,85,0.00,,,0.00,WeatherCatV1.12B45,2013-01-15 12:31:00,
2013-01-15 07:36:00,13.9,10.2,30.36,WSW,243,0.0,0.0,85,0.00,,,0.00,WeatherCatV1.12B45,2013-01-15 12:36:00,
2013-01-15 07:41:00,13.8,10.1,30.35,WSW,243,0.0,0.0,85,0.00,,,0.00,WeatherCatV1.12B45,2013-01-15 12:41:00,
2013-01-15 07:46:00,13.9,10.5,30.35,WSW,243,0.0,1.0,86,0.00,,,0.00,WeatherCatV1.12B45,2013-01-15 12:46:00,
2013-01-15 07:51:00,13.9,10.2,30.35,WSW,243,0.0,0.0,85,0.00,,,0.00,WeatherCatV1.12B45,2013-01-15 12:51:00,
2013-01-15 07:56:00,13.8,10.1,30.36,WSW,243,0.0,0.0,85,0.00,,,0.00,WeatherCatV1.12B45,2013-01-15 12:56:00,
2013-01-15 08:01:00,13.5,9.8,30.35,WSW,243,0.0,0.0,85,0.00,,,0.00,WeatherCatV1.12B45,2013-01-15 13:01:00,
2013-01-15 08:06:00,13.4,9.8,30.35,WSW,243,0.0,0.0,85,0.00,,,0.00,WeatherCatV1.12B45,2013-01-15 13:06:00,
2013-01-15 08:11:00,13.2,9.6,30.36,SSE,161,0.0,0.0,85,0.00,,,0.00,WeatherCatV1.12B45,2013-01-15 13:11:00,
2013-01-15 08:16:00,13.0,9.4,30.35,SW,222,0.0,1.0,85,0.00,,,0.00,WeatherCatV1.12B45,2013-01-15 13:16:00,
2013-01-15 08:21:00,13.2,9.8,30.36,SE,134,0.0,0.0,86,0.00,,,0.00,WeatherCatV1.12B45,2013-01-15 13:21:00,
2013-01-15 08:26:00,13.3,9.7,30.36,SW,215,0.0,0.0,85,0.00,,,0.00,WeatherCatV1.12B45,2013-01-15 13:26:00,
2013-01-15 08:31:00,13.5,9.8,30.36,WNW,290,0.0,1.0,85,0.00,,,0.00,WeatherCatV1.12B45,2013-01-15 13:31:00,
2013-01-15 08:36:00,13.9,10.2,30.36,SSE,153,0.0,0.0,85,0.00,,,0.00,WeatherCatV1.12B45,2013-01-15 13:36:00,
2013-01-15 08:41:00,14.4,10.5,30.36,West,270,0.0,1.0,84,0.00,,,0.00,WeatherCatV1.12B45,2013-01-15 13:41:00,
2013-01-15 08:46:00,14.9,10.7,30.36,SSE,167,0.0,0.0,83,0.00,,,0.00,WeatherCatV1.12B45,2013-01-15 13:46:00,
2013-01-15 08:51:00,15.7,11.2,30.36,SE,129,1.0,1.0,82,0.00,,,0.00,WeatherCatV1.12B45,2013-01-15 13:51:00,
2013-01-15 08:56:00,16.3,11.5,30.37,SSE,149,0.0,1.0,81,0.00,,,0.00,WeatherCatV1.12B45,2013-01-15 13:56:00,
2013-01-15 09:01:00,16.7,11.9,30.37,SE,143,0.0,0.0,81,0.00,,,0.00,WeatherCatV1.12B45,2013-01-15 14:01:00,
2013-01-15 09:06:00,17.4,12.0,30.37,SE,143,0.0,1.0,79,0.00,,,0.00,WeatherCatV1.12B45,2013-01-15 14:06:00,
2013-01-15 09:11:00,18.2,12.5,30.37,SE,143,0.0,1.0,78,0.00,,,0.00,WeatherCatV1.12B45,2013-01-15 14:11:00,
2013-01-15 09:16:00,18.9,12.9,30.36,SE,143,0.0,0.0,77,0.00,,,0.00,WeatherCatV1.12B45,2013-01-15 14:16:00,
2013-01-15 09:21:00,19.2,12.6,30.37,SSE,149,0.0,0.0,75,0.00,,,0.00,WeatherCatV1.12B45,2013-01-15 14:21:00,
2013-01-15 09:26:00,19.8,13.2,30.36,SSE,167,0.0,0.0,75,0.00,,,0.00,WeatherCatV1.12B45,2013-01-15 14:26:00,
2013-01-15 09:31:00,20.4,13.5,30.36,SE,137,0.0,2.0,74,0.00,,,0.00,WeatherCatV1.12B45,2013-01-15 14:31:00,
2013-01-15 09:36:00,21.2,13.9,30.37,SE,127,0.0,1.0,73,0.00,,,0.00,WeatherCatV1.12B45,2013-01-15 14:36:00,
2013-01-15 09:41:00,21.7,14.1,30.36,SSE,148,0.0,1.0,72,0.00,,,0.00,WeatherCatV1.12B45,2013-01-15 14:41:00,
2013-01-15 09:46:00,22.3,14.4,30.36,South,187,0.0,0.0,71,0.00,,,0.00,WeatherCatV1.12B45,2013-01-15 14:46:00,
2013-01-15 09:51:00,23.4,15.1,30.36,SE,124,1.0,1.0,70,0.00,,,0.00,WeatherCatV1.12B45,2013-01-15 14:51:00,
2013-01-15 09:56:00,23.9,14.9,30.36,SSE,151,0.0,1.0,68,0.00,,,0.00,WeatherCatV1.12B45,2013-01-15 14:56:00,
2013-01-15 10:01:00,24.0,14.3,30.36,WSW,256,0.0,3.0,66,0.00,,,0.00,WeatherCatV1.12B45,2013-01-15 15:01:00,
2013-01-15 10:06:00,24.3,14.9,30.35,ESE,123,0.0,2.0,67,0.00,,,0.00,WeatherCatV1.12B45,2013-01-15 15:06:00,
2013-01-15 10:11:00,24.8,14.4,30.35,SSE,150,0.0,2.0,64,0.00,,,0.00,WeatherCatV1.12B45,2013-01-15 15:11:00,
2013-01-15 10:16:00,24.7,14.3,30.35,WSW,257,1.0,1.0,64,0.00,,,0.00,WeatherCatV1.12B45,2013-01-15 15:16:00,
2013-01-15 10:21:00,24.4,13.6,30.35,WSW,248,2.0,9.0,63,0.00,,,0.00,WeatherCatV1.12B45,2013-01-15 15:21:00,
2013-01-15 10:26:00,24.7,14.3,30.34,SSE,148,0.0,1.0,64,0.00,,,0.00,WeatherCatV1.12B45,2013-01-15 15:26:00,
2013-01-15 10:31:00,24.6,14.2,30.34,SW,219,0.0,2.0,64,0.00,,,0.00,WeatherCatV1.12B45,2013-01-15 15:31:00,
2013-01-15 10:36:00,25.1,15.0,30.34,SSE,152,1.0,3.0,65,0.00,,,0.00,WeatherCatV1.12B45,2013-01-15 15:36:00,
2013-01-15 10:41:00,25.3,15.2,30.34,South,190,1.0,6.0,65,0.00,,,0.00,WeatherCatV1.12B45,2013-01-15 15:41:00,
2013-01-15 10:46:00,25.9,15.4,30.34,ESE,103,1.0,2.0,64,0.00,,,0.00,WeatherCatV1.12B45,2013-01-15 15:46:00,
2013-01-15 10:51:00,26.0,15.9,30.34,SE,146,2.0,5.0,65,0.00,,,0.00,WeatherCatV1.12B45,2013-01-15 15:51:00,
2013-01-15 10:56:00,26.2,15.7,30.34,South,174,1.0,2.0,64,0.00,,,0.00,WeatherCatV1.12B45,2013-01-15 15:56:00,
2013-01-15 11:01:00,26.3,16.2,30.34,SE,127,1.0,3.0,65,0.00,,,0.00,WeatherCatV1.12B45,2013-01-15 16:01:00,
2013-01-15 11:06:00,26.9,16.4,30.34,SSW,204,0.0,3.0,64,0.00,,,0.00,WeatherCatV1.12B45,2013-01-15 16:06:00,
2013-01-15 11:11:00,27.5,16.9,30.34,SSE,160,1.0,1.0,64,0.00,,,0.00,WeatherCatV1.12B45,2013-01-15 16:11:00,
2013-01-15 11:16:00,27.9,17.0,30.34,WNW,298,2.0,6.0,63,0.00,,,0.00,WeatherCatV1.12B45,2013-01-15 16:16:00,
2013-01-15 11:21:00,27.1,16.2,30.34,NW,307,2.0,6.0,63,0.00,,,0.00,WeatherCatV1.12B45,2013-01-15 16:21:00,
2013-01-15 11:26:00,27.2,16.3,30.34,South,183,1.0,5.0,63,0.00,,,0.00,WeatherCatV1.12B45,2013-01-15 16:26:00,
2013-01-15 11:31:00,27.8,16.9,30.34,West,266,0.0,6.0,63,0.00,,,0.00,WeatherCatV1.12B45,2013-01-15 16:31:00,
2013-01-15 11:36:00,28.1,16.8,30.34,WSW,252,2.0,7.0,62,0.00,,,0.00,WeatherCatV1.12B45,2013-01-15 16:36:00,
2013-01-15 11:41:00,27.7,17.1,30.34,NNE,32,2.0,3.0,64,0.00,,,0.00,WeatherCatV1.12B45,2013-01-15 16:41:00,
2013-01-15 11:46:00,28.1,17.2,30.34,SW,220,1.0,4.0,63,0.00,,,0.00,WeatherCatV1.12B45,2013-01-15 16:46:00,
2013-01-15 11:51:00,27.9,17.0,30.33,WSW,250,5.0,8.0,63,0.00,,,0.00,WeatherCatV1.12B45,2013-01-15 16:51:00,
2013-01-15 11:56:00,26.9,16.0,30.33,East,97,1.0,12.0,63,0.00,,,0.00,WeatherCatV1.12B45,2013-01-15 16:56:00,
2013-01-15 12:01:00,26.4,16.3,30.33,SSE,148,0.0,1.0,65,0.00,,,0.00,WeatherCatV1.12B45,2013-01-15 17:01:00,
2013-01-15 12:06:00,26.5,16.4,30.32,ESE,122,3.0,11.0,65,0.00,,,0.00,WeatherCatV1.12B45,2013-01-15 17:06:00,
2013-01-15 12:11:00,27.0,16.5,30.32,SW,222,1.0,6.0,64,0.00,,,0.00,WeatherCatV1.12B45,2013-01-15 17:11:00,
2013-01-15 12:16:00,27.7,16.8,30.31,SSW,203,1.0,8.0,63,0.00,,,0.00,WeatherCatV1.12B45,2013-01-15 17:16:00,
2013-01-15 12:21:00,28.1,17.2,30.31,West,262,6.0,9.0,63,0.00,,,0.00,WeatherCatV1.12B45,2013-01-15 17:21:00,
2013-01-15 12:26:00,28.2,17.2,30.31,SSW,193,6.0,10.0,63,0.00,,,0.00,WeatherCatV1.12B45,2013-01-15 17:26:00,
2013-01-15 12:31:00,28.2,17.6,30.31,West,263,4.0,7.0,64,0.00,,,0.00,WeatherCatV1.12B45,2013-01-15 17:31:00,
2013-01-15 12:36:00,28.4,18.2,30.30,South,185,1.0,2.0,65,0.00,,,0.00,WeatherCatV1.12B45,2013-01-15 17:36:00,
2013-01-15 12:41:00,28.6,17.6,30.30,ESE,113,5.0,5.0,63,0.00,,,0.00,WeatherCatV1.12B45,2013-01-15 17:41:00,
2013-01-15 12:46:00,28.2,18.0,30.30,SSE,163,1.0,3.0,65,0.00,,,0.00,WeatherCatV1.12B45,2013-01-15 17:46:00,
2013-01-15 12:51:00,27.5,16.9,30.30,West,263,2.0,11.0,64,0.00,,,0.00,WeatherCatV1.12B45,2013-01-15 17:51:00,
2013-01-15 12:56:00,27.1,16.9,30.29,SSW,203,3.0,4.0,65,0.00,,,0.00,WeatherCatV1.12B45,2013-01-15 17:56:00,
2013-01-15 13:01:00,26.8,17.0,30.29,SE,136,4.0,6.0,66,0.00,,,0.00,WeatherCatV1.12B45,2013-01-15 18:01:00,
2013-01-15 13:06:00,26.7,16.9,30.28,ESE,110,1.0,5.0,66,0.00,,,0.00,WeatherCatV1.12B45,2013-01-15 18:06:00,
2013-01-15 13:11:00,27.5,17.7,30.28,SSE,161,4.0,7.0,66,0.00,,,0.00,WeatherCatV1.12B45,2013-01-15 18:11:00,
2013-01-15 13:16:00,27.6,17.4,30.28,SW,221,2.0,7.0,65,0.00,,,0.00,WeatherCatV1.12B45,2013-01-15 18:16:00,
2013-01-15 13:21:00,27.4,17.2,30.28,SSE,147,0.0,4.0,65,0.00,,,0.00,WeatherCatV1.12B45,2013-01-15 18:21:00,
2013-01-15 13:26:00,28.0,18.1,30.27,South,177,1.0,1.0,66,0.00,,,0.00,WeatherCatV1.12B45,2013-01-15 18:26:00,
2013-01-15 13:31:00,28.2,18.3,30.27,SSE,166,1.0,2.0,66,0.00,,,0.00,WeatherCatV1.12B45,2013-01-15 18:31:00,
2013-01-15 13:36:00,27.9,17.7,30.26,West,278,2.0,7.0,65,0.00,,,0.00,WeatherCatV1.12B45,2013-01-15 18:36:00,
2013-01-15 13:41:00,28.1,18.2,30.26,SSW,212,3.0,5.0,66,0.00,,,0.00,WeatherCatV1.12B45,2013-01-15 18:41:00,
2013-01-15 13:46:00,28.2,18.0,30.26,SE,124,2.0,6.0,65,0.00,,,0.00,WeatherCatV1.12B45,2013-01-15 18:46:00,
2013-01-15 13:51:00,28.6,17.6,30.26,SSE,150,1.0,9.0,63,0.00,,,0.00,WeatherCatV1.12B45,2013-01-15 18:51:00,
2013-01-15 13:56:00,28.9,17.5,30.26,SE,143,2.0,6.0,62,0.00,,,0.00,WeatherCatV1.12B45,2013-01-15 18:56:00,
2013-01-15 14:01:00,29.1,18.1,30.26,SSE,162,1.0,4.0,63,0.00,,,0.00,WeatherCatV1.12B45,2013-01-15 19:01:00,
2013-01-15 14:06:00,28.9,17.9,30.26,SSE,167,2.0,4.0,63,0.00,,,0.00,WeatherCatV1.12B45,2013-01-15 19:06:00,
2013-01-15 14:11:00,28.7,17.7,30.26,NW,322,2.0,5.0,63,0.00,,,0.00,WeatherCatV1.12B45,2013-01-15 19:11:00,
2013-01-15 14:16:00,28.6,18.0,30.26,SE,137,2.0,5.0,64,0.00,,,0.00,WeatherCatV1.12B45,2013-01-15 19:16:00,
2013-01-15 14:21:00,28.6,18.4,30.26,SE,141,4.0,8.0,65,0.00,,,0.00,WeatherCatV1.12B45,2013-01-15 19:21:00,
2013-01-15 14:26:00,28.7,18.4,30.26,WSW,252,2.0,7.0,65,0.00,,,0.00,WeatherCatV1.12B45,2013-01-15 19:26:00,
2013-01-15 14:31:00,28.3,17.7,30.27,ESE,122,1.0,4.0,64,0.00,,,0.00,WeatherCatV1.12B45,2013-01-15 19:31:00,
2013-01-15 14:36:00,28.3,18.1,30.26,SE,146,4.0,8.0,65,0.00,,,0.00,WeatherCatV1.12B45,2013-01-15 19:36:00,
2013-01-15 14:41:00,28.5,17.9,30.27,South,181,2.0,7.0,64,0.00,,,0.00,WeatherCatV1.12B45,2013-01-15 19:41:00,
2013-01-15 14:46:00,28.6,18.0,30.26,SE,142,1.0,7.0,64,0.00,,,0.00,WeatherCatV1.12B45,2013-01-15 19:46:00,
2013-01-15 14:51:00,28.8,17.8,30.26,SE,146,6.0,11.0,63,0.00,,,0.00,WeatherCatV1.12B45,2013-01-15 19:51:00,
2013-01-15 14:56:00,28.3,17.7,30.26,SSE,168,1.0,4.0,64,0.00,,,0.00,WeatherCatV1.12B45,2013-01-15 19:56:00,
2013-01-15 15:01:00,28.3,17.7,30.25,NE,34,2.0,12.0,64,0.00,,,0.00,WeatherCatV1.12B45,2013-01-15 20:01:00,
2013-01-15 15:06:00,28.3,18.1,30.25,SSE,163,1.0,8.0,65,0.00,,,0.00,WeatherCatV1.12B45,2013-01-15 20:06:00,
2013-01-15 15:11:00,28.3,17.7,30.25,SSE,156,6.0,13.0,64,0.00,,,0.00,WeatherCatV1.12B45,2013-01-15 20:11:00,
2013-01-15 15:16:00,28.6,17.6,30.25,SSE,160,6.0,14.0,63,0.00,,,0.00,WeatherCatV1.12B45,2013-01-15 20:16:00,
2013-01-15 15:21:00,28.7,17.7,30.25,SSE,150,4.0,4.0,63,0.00,,,0.00,WeatherCatV1.12B45,2013-01-15 20:21:00,
2013-01-15 15:26:00,28.7,17.7,30.25,WSW,246,11.0,11.0,63,0.00,,,0.00,WeatherCatV1.12B45,2013-01-15 20:26:00,
2013-01-15 15:31:00,28.7,17.7,30.25,SE,131,2.0,4.0,63,0.00,,,0.00,WeatherCatV1.12B45,2013-01-15 20:31:00,
2013-01-15 15:36:00,28.5,17.9,30.24,West,276,5.0,5.0,64,0.00,,,0.00,WeatherCatV1.12B45,2013-01-15 20:36:00,
2013-01-15 15:41:00,28.6,18.4,30.24,ESE,117,1.0,3.0,65,0.00,,,0.00,WeatherCatV1.12B45,2013-01-15 20:41:00,
2013-01-15 15:46:00,28.8,18.2,30.24,ESE,121,2.0,5.0,64,0.00,,,0.00,WeatherCatV1.12B45,2013-01-15 20:46:00,
2013-01-15 15:51:00,29.0,18.4,30.24,SE,141,1.0,3.0,64,0.00,,,0.00,WeatherCatV1.12B45,2013-01-15 20:51:00,
2013-01-15 15:56:00,29.1,18.1,30.24,NNW,334,4.0,8.0,63,0.00,,,0.00,WeatherCatV1.12B45,2013-01-15 20:56:00,
2013-01-15 16:01:00,29.0,18.4,30.24,South,170,1.0,6.0,64,0.00,,,0.00,WeatherCatV1.12B45,2013-01-15 21:01:00,
2013-01-15 16:06:00,29.1,18.1,30.23,SW,226,4.0,8.0,63,0.00,,,0.00,WeatherCatV1.12B45,2013-01-15 21:06:00,
2013-01-15 16:11:00,28.6,18.0,30.23,West,267,1.0,3.0,64,0.00,,,0.00,WeatherCatV1.12B45,2013-01-15 21:11:00,
2013-01-15 16:16:00,28.1,17.9,30.23,SSE,162,1.0,10.0,65,0.00,,,0.00,WeatherCatV1.12B45,2013-01-15 21:16:00,
2013-01-15 16:21:00,27.8,17.9,30.23,SSE,150,0.0,6.0,66,0.00,,,0.00,WeatherCatV1.12B45,2013-01-15 21:21:00,
2013-01-15 16:26:00,28.0,18.5,30.23,SSE,155,3.0,4.0,67,0.00,,,0.00,WeatherCatV1.12B45,2013-01-15 21:26:00,
2013-01-15 16:31:00,28.0,18.5,30.23,WSW,246,2.0,3.0,67,0.00,,,0.00,WeatherCatV1.12B45,2013-01-15 21:31:00,
2013-01-15 16:36:00,27.8,18.3,30.23,WSW,249,5.0,7.0,67,0.00,,,0.00,WeatherCatV1.12B45,2013-01-15 21:36:00,
2013-01-15 16:41:00,27.7,18.5,30.23,West,269,1.0,5.0,68,0.00,,,0.00,WeatherCatV1.12B45,2013-01-15 21:41:00,
2013-01-15 16:46:00,27.7,18.9,30.23,South,187,1.0,4.0,69,0.00,,,0.00,WeatherCatV1.12B45,2013-01-15 21:46:00,
2013-01-15 16:51:00,27.4,18.6,30.23,SE,132,1.0,3.0,69,0.00,,,0.00,WeatherCatV1.12B45,2013-01-15 21:51:00,
2013-01-15 16:56:00,27.3,18.8,30.22,SSE,149,2.0,3.0,70,0.00,,,0.00,WeatherCatV1.12B45,2013-01-15 21:56:00,
2013-01-15 17:01:00,27.1,18.6,30.22,ESE,114,1.0,5.0,70,0.00,,,0.00,WeatherCatV1.12B45,2013-01-15 22:01:00,
2013-01-15 17:06:00,26.9,18.8,30.22,SSE,153,4.0,6.0,71,0.00,,,0.00,WeatherCatV1.12B45,2013-01-15 22:06:00,
2013-01-15 17:11:00,26.7,18.6,30.21,SSE,167,0.0,6.0,71,0.00,,,0.00,WeatherCatV1.12B45,2013-01-15 22:11:00,
2013-01-15 17:16:00,26.6,18.8,30.21,NNW,342,2.0,2.0,72,0.00,,,0.00,WeatherCatV1.12B45,2013-01-15 22:16:00,
2013-01-15 17:21:00,26.5,18.7,30.21,West,279,0.0,3.0,72,0.00,,,0.00,WeatherCatV1.12B45,2013-01-15 22:21:00,
2013-01-15 17:31:00,26.2,18.7,30.21,WSW,243,2.0,2.0,73,0.00,,,0.00,WeatherCatV1.12B45,2013-01-15 22:31:00,
2013-01-15 17:36:00,26.1,18.7,30.21,WNW,286,1.0,3.0,73,0.00,,,0.00,WeatherCatV1.12B45,2013-01-15 22:36:00,
2013-01-15 17:41:00,25.9,18.8,30.21,SSE,161,3.0,3.0,74,0.00,,,0.00,WeatherCatV1.12B45,2013-01-15 22:41:00,
2013-01-15 17:46:00,25.9,18.8,30.21,South,175,1.0,3.0,74,0.00,,,0.00,WeatherCatV1.12B45,2013-01-15 22:46:00,
2013-01-15 17:51:00,25.7,18.9,30.20,SSE,147,0.0,2.0,75,0.00,,,0.00,WeatherCatV1.12B45,2013-01-15 22:51:00,
2013-01-15 17:56:00,25.5,19.0,30.20,WNW,283,4.0,5.0,76,0.00,,,0.00,WeatherCatV1.12B45,2013-01-15 22:56:00,
2013-01-15 18:01:00,25.4,19.2,30.20,NNE,16,1.0,7.0,77,0.00,,,0.00,WeatherCatV1.12B45,2013-01-15 23:01:00,
2013-01-15 18:06:00,25.2,19.0,30.21,NE,34,1.0,5.0,77,0.00,,,0.00,WeatherCatV1.12B45,2013-01-15 23:06:00,
2013-01-15 18:11:00,25.0,19.1,30.20,SSE,161,3.0,5.0,78,0.00,,,0.00,WeatherCatV1.12B45,2013-01-15 23:11:00,
2013-01-15 18:16:00,24.9,19.0,30.21,SE,136,1.0,6.0,78,0.00,,,0.00,WeatherCatV1.12B45,2013-01-15 23:16:00,
2013-01-15 18:21:00,24.7,19.1,30.20,SE,142,3.0,4.0,79,0.00,,,0.00,WeatherCatV1.12B45,2013-01-15 23:21:00,
2013-01-15 18:26:00,24.6,19.0,30.20,South,186,2.0,6.0,79,0.00,,,0.00,WeatherCatV1.12B45,2013-01-15 23:26:00,
2013-01-15 18:31:00,24.5,19.2,30.20,SSE,147,2.0,5.0,80,0.00,,,0.00,WeatherCatV1.12B45,2013-01-15 23:31:00,
2013-01-15 18:36:00,24.4,19.1,30.20,SSE,161,5.0,5.0,80,0.00,,,0.00,WeatherCatV1.12B45,2013-01-15 23:36:00,
2013-01-15 18:41:00,24.3,19.0,30.19,East,86,0.0,6.0,80,0.00,,,0.00,WeatherCatV1.12B45,2013-01-15 23:41:00,
2013-01-15 18:46:00,24.1,18.8,30.19,East,86,0.0,4.0,80,0.00,,,0.00,WeatherCatV1.12B45,2013-01-15 23:46:00,
2013-01-15 18:51:00,24.0,19.0,30.19,SE,134,3.0,3.0,81,0.00,,,0.00,WeatherCatV1.12B45,2013-01-15 23:51:00,
2013-01-15 18:56:00,23.9,18.9,30.19,SE,138,2.0,3.0,81,0.00,,,0.00,WeatherCatV1.12B45,2013-01-15 23:56:00,
2013-01-15 19:01:00,23.7,18.7,30.18,South,178,2.0,3.0,81,0.00,,,0.00,WeatherCatV1.12B45,2013-01-16 00:01:00,
2013-01-15 19:06:00,23.6,18.6,30.18,SSE,151,3.0,3.0,81,0.00,,,0.00,WeatherCatV1.12B45,2013-01-16 00:06:00,
2013-01-15 19:11:00,23.6,18.6,30.18,SSE,149,2.0,6.0,81,0.00,,,0.00,WeatherCatV1.12B45,2013-01-16 00:11:00,
2013-01-15 19:16:00,23.5,18.8,30.18,SSW,198,3.0,4.0,82,0.00,,,0.00,WeatherCatV1.12B45,2013-01-16 00:16:00,
2013-01-15 19:21:00,23.3,18.6,30.18,SSE,152,1.0,3.0,82,0.00,,,0.00,WeatherCatV1.12B45,2013-01-16 00:21:00,
2013-01-15 19:28:00,23.2,18.5,30.18,SSE,156,4.0,6.0,82,0.00,,,0.00,WeatherCatV1.12B45,2013-01-16 00:28:00,
2013-01-15 19:33:00,23.2,18.5,30.18,ESE,108,3.0,9.0,82,0.00,,,0.00,WeatherCatV1.12B45,2013-01-16 00:33:00,
2013-01-15 19:38:00,23.2,18.5,30.18,SSE,157,1.0,3.0,82,0.00,,,0.00,WeatherCatV1.12B45,2013-01-16 00:38:00,
2013-01-15 19:43:00,23.0,18.3,30.18,SSW,200,3.0,5.0,82,0.00,,,0.00,WeatherCatV1.12B45,2013-01-16 00:43:00,
2013-01-15 19:48:00,22.9,18.5,30.17,SSE,160,0.0,5.0,83,0.00,,,0.00,WeatherCatV1.12B45,2013-01-16 00:48:00,
2013-01-15 19:53:00,22.8,18.4,30.18,SSE,163,1.0,8.0,83,0.00,,,0.00,WeatherCatV1.12B45,2013-01-16 00:53:00,
2013-01-15 19:58:00,22.7,18.3,30.17,South,189,2.0,5.0,83,0.00,,,0.00,WeatherCatV1.12B45,2013-01-16 00:58:00,
2013-01-15 20:03:00,22.7,18.3,30.18,SW,215,0.0,5.0,83,0.00,,,0.00,WeatherCatV1.12B45,2013-01-16 01:03:00,
2013-01-15 20:05:00,22.7,18.3,30.18,SSE,153,2.0,6.0,83,0.00,,,0.00,WeatherCatV1.12B45,2013-01-16 01:05:00,
2013-01-15 20:08:00,22.6,18.2,30.17,South,187,1.0,5.0,83,0.00,,,0.00,WeatherCatV1.12B45,2013-01-16 01:08:00,
2013-01-15 20:10:00,22.6,18.2,30.17,SSE,157,2.0,2.0,83,0.00,,,0.00,WeatherCatV1.12B45,2013-01-16 01:10:00,
2013-01-15 20:15:00,22.6,18.2,30.17,SSE,157,2.0,2.0,83,0.00,,,0.00,WeatherCatV1.12B45,2013-01-16 01:15:00,
2013-01-15 20:20:00,22.6,18.2,30.17,SSE,157,2.0,2.0,83,0.00,,,0.00,WeatherCatV1.12B45,2013-01-16 01:20:00,
2013-01-15 20:25:00,22.6,18.2,30.17,SSE,157,2.0,2.0,83,0.00,,,0.00,WeatherCatV1.12B45,2013-01-16 01:25:00,
2013-01-15 20:30:00,22.6,18.2,30.17,SSE,157,2.0,2.0,83,0.00,,,0.00,WeatherCatV1.12B45,2013-01-16 01:30:00,
2013-01-15 20:35:00,22.6,18.2,30.17,SSE,157,2.0,2.0,83,0.00,,,0.00,WeatherCatV1.12B45,2013-01-16 01:35:00,
2013-01-15 20:40:00,22.3,17.9,30.17,SSE,158,1.0,7.0,83,0.00,,,0.00,WeatherCatV1.12B45,2013-01-16 01:40:00,
2013-01-15 20:45:00,22.3,17.9,30.17,SSE,158,1.0,7.0,83,0.00,,,0.00,WeatherCatV1.12B45,2013-01-16 01:45:00,
2013-01-15 20:50:00,22.3,17.9,30.17,SSE,158,1.0,7.0,83,0.00,,,0.00,WeatherCatV1.12B45,2013-01-16 01:50:00,
2013-01-15 20:55:00,22.3,17.9,30.17,SSE,158,1.0,7.0,83,0.00,,,0.00,WeatherCatV1.12B45,2013-01-16 01:55:00,
2013-01-15 21:00:00,22.3,17.9,30.17,SSE,158,1.0,7.0,83,0.00,,,0.00,WeatherCatV1.12B45,2013-01-16 02:00:00,
2013-01-15 21:05:00,22.3,17.9,30.17,SSE,158,1.0,7.0,83,0.00,,,0.00,WeatherCatV1.12B45,2013-01-16 02:05:00,
2013-01-15 21:10:00,22.0,17.6,30.15,SSE,158,1.0,6.0,83,0.00,,,0.00,WeatherCatV1.12B45,2013-01-16 02:10:00,
2013-01-15 21:15:00,22.0,17.6,30.15,SSE,158,1.0,6.0,83,0.00,,,0.00,WeatherCatV1.12B45,2013-01-16 02:15:00,
2013-01-15 21:20:00,22.0,17.6,30.15,SSE,158,1.0,6.0,83,0.00,,,0.00,WeatherCatV1.12B45,2013-01-16 02:20:00,
2013-01-15 21:25:00,22.0,17.6,30.15,SSE,158,1.0,6.0,83,0.00,,,0.00,WeatherCatV1.12B45,2013-01-16 02:25:00,
2013-01-15 21:30:00,22.0,17.6,30.15,SSE,158,1.0,6.0,83,0.00,,,0.00,WeatherCatV1.12B45,2013-01-16 02:30:00,
2013-01-15 21:35:00,22.0,17.6,30.15,SSE,158,1.0,6.0,83,0.00,,,0.00,WeatherCatV1.12B45,2013-01-16 02:35:00,
2013-01-15 21:40:00,22.0,17.6,30.13,SSE,158,1.0,6.0,83,0.00,,,0.00,WeatherCatV1.12B45,2013-01-16 02:40:00,
2013-01-15 21:45:00,22.0,17.6,30.13,SSE,158,1.0,6.0,83,0.00,,,0.00,WeatherCatV1.12B45,2013-01-16 02:45:00,
2013-01-15 21:50:00,22.0,17.6,30.13,SSE,158,1.0,6.0,83,0.00,,,0.00,WeatherCatV1.12B45,2013-01-16 02:50:00,
2013-01-15 21:55:00,22.0,17.6,30.13,SSE,158,1.0,6.0,83,0.00,,,0.00,WeatherCatV1.12B45,2013-01-16 02:55:00,
2013-01-15 22:00:00,22.0,17.6,30.13,SSE,158,1.0,6.0,83,0.00,,,0.00,WeatherCatV1.12B45,2013-01-16 03:00:00,
2013-01-15 22:05:00,22.0,17.6,30.13,SSE,158,1.0,6.0,83,0.00,,,0.00,WeatherCatV1.12B45,2013-01-16 03:05:00,
2013-01-15 22:10:00,22.1,17.5,30.11,SSE,158,1.0,5.0,82,0.00,,,0.00,WeatherCatV1.12B45,2013-01-16 03:10:00,
2013-01-15 22:15:00,22.1,17.5,30.11,SSE,158,1.0,5.0,82,0.00,,,0.00,WeatherCatV1.12B45,2013-01-16 03:15:00,
2013-01-15 22:20:00,22.1,17.5,30.11,SSE,158,1.0,5.0,82,0.00,,,0.00,WeatherCatV1.12B45,2013-01-16 03:20:00,
2013-01-15 22:25:00,22.1,17.5,30.11,SSE,158,1.0,5.0,82,0.00,,,0.00,WeatherCatV1.12B45,2013-01-16 03:25:00,
2013-01-15 22:30:00,22.1,17.5,30.11,SSE,158,1.0,5.0,82,0.00,,,0.00,WeatherCatV1.12B45,2013-01-16 03:30:00,
2013-01-15 22:35:00,22.1,17.5,30.11,SSE,158,1.0,5.0,82,0.00,,,0.00,WeatherCatV1.12B45,2013-01-16 03:35:00,
2013-01-15 22:40:00,21.9,17.3,30.10,SSE,158,0.0,3.0,82,0.00,,,0.00,WeatherCatV1.12B45,2013-01-16 03:40:00,
2013-01-15 22:45:00,21.9,17.3,30.10,SSE,158,0.0,3.0,82,0.00,,,0.00,WeatherCatV1.12B45,2013-01-16 03:45:00,
2013-01-15 22:50:00,21.9,17.3,30.10,SSE,158,0.0,3.0,82,0.00,,,0.00,WeatherCatV1.12B45,2013-01-16 03:50:00,
2013-01-15 22:55:00,21.9,17.3,30.10,SSE,158,0.0,3.0,82,0.00,,,0.00,WeatherCatV1.12B45,2013-01-16 03:55:00,
2013-01-15 23:00:00,21.9,17.3,30.10,SSE,158,0.0,3.0,82,0.00,,,0.00,WeatherCatV1.12B45,2013-01-16 04:00:00,
2013-01-15 23:05:00,21.9,17.3,30.10,SSE,158,0.0,3.0,82,0.00,,,0.00,WeatherCatV1.12B45,2013-01-16 04:05:00,
2013-01-15 23:10:00,21.9,17.3,30.08,SSE,158,0.0,4.0,82,0.00,,,0.00,WeatherCatV1.12B45,2013-01-16 04:10:00,
2013-01-15 23:15:00,21.9,17.3,30.08,SSE,158,0.0,4.0,82,0.00,,,0.00,WeatherCatV1.12B45,2013-01-16 04:15:00,
2013-01-15 23:20:00,21.9,17.3,30.08,SSE,158,0.0,4.0,82,0.00,,,0.00,WeatherCatV1.12B45,2013-01-16 04:20:00,
2013-01-15 23:25:00,21.9,17.3,30.08,SSE,158,0.0,4.0,82,0.00,,,0.00,WeatherCatV1.12B45,2013-01-16 04:25:00,
2013-01-15 23:30:00,21.9,17.3,30.08,SSE,158,0.0,4.0,82,0.00,,,0.00,WeatherCatV1.12B45,2013-01-16 04:30:00,
2013-01-15 23:35:00,21.9,17.3,30.08,SSE,158,0.0,4.0,82,0.00,,,0.00,WeatherCatV1.12B45,2013-01-16 04:35:00,
2013-01-15 23:40:00,21.6,17.3,30.06,SE,135,1.0,4.0,83,0.00,,,0.00,WeatherCatV1.12B45,2013-01-16 04:40:00,
2013-01-15 23:45:00,21.6,17.3,30.06,SE,135,1.0,4.0,83,0.00,,,0.00,WeatherCatV1.12B45,2013-01-16 04:45:00,
2013-01-15 23:50:00,21.6,17.3,30.06,SE,135,1.0,4.0,83,0.00,,,0.00,WeatherCatV1.12B45,2013-01-16 04:50:00,
2013-01-15 23:55:00,21.6,17.3,30.06,SE,135,1.0,4.0,83,0.00,,,0.00,WeatherCatV1.12B45,2013-01-16 04:55:00,